Latest Weather Observations for Portland Harbour

IDV60801

Issued at 3:02 pm EST Wednesday 14 April 2021 (issued every 10 minutes, with the page automatically refreshed every 10 minutes)

About weather observations | Map of weather stations | Latest weather observations for VIC | Other Formats
Station Details ID: 090192 Name: PORTLAND NTC AWS Lat: -38.34 Lon: 141.61 Height: 0.0 m
Data from the previous 72 hours. | See also: Recent months for locations in Victoria
Date/Time
EST
Temp
°C
App
Temp
°C
Dew
Point
°C
Rel
Hum
%
Delta-T
°C
Wind Press
QNH
hPa
Press
MSL
hPa
Rain since
9am
mm
Dir  Spd
km/h
Gust
km/h
Spd
kts
Gust
kts
14/03:00pm 16.1 - - - - WSW 30 39 16 21 1011.8 1011.8 -
14/02:34pm 15.9 - - - - W 33 61 18 33 1011.6 1011.6 -
14/02:30pm 16.8 - - - - W 33 48 18 26 1011.3 1011.3 -
14/02:00pm 17.0 - - - - W 32 54 17 29 1011.1 1011.1 -
14/01:39pm 16.3 - - - - WSW 33 52 18 28 1011.2 1011.2 -
14/01:30pm 16.3 - - - - W 33 48 18 26 1011.1 1011.1 -
14/01:04pm 15.7 - - - - WSW 35 56 19 30 1011.3 1011.3 -
14/01:00pm 15.5 - - - - WSW 41 59 22 32 1011.2 1011.2 -
14/12:34pm 16.7 - - - - W 37 57 20 31 1011.0 1011.0 -
14/12:30pm 16.8 - - - - W 35 52 19 28 1011.0 1011.0 -
14/12:01pm 16.6 - - - - W 41 59 22 32 1010.8 1010.8 -
14/12:00pm 16.6 - - - - W 41 56 22 30 1010.8 1010.8 -
14/11:30am 16.1 - - - - W 37 57 20 31 1010.8 1010.8 -
14/11:02am 16.6 - - - - W 37 57 20 31 1010.3 1010.3 -
14/11:00am 16.6 - - - - W 37 54 20 29 1010.2 1010.2 -
14/10:44am 16.4 - - - - WNW 32 54 17 29 1010.0 1010.0 -
14/10:30am 16.4 - - - - W 35 52 19 28 1009.9 1009.9 -
14/10:01am 15.9 - - - - W 28 48 15 26 1009.8 1009.8 -
14/10:00am 15.9 - - - - W 28 43 15 23 1010.0 1010.0 -
14/09:36am 16.0 - - - - W 30 57 16 31 1009.9 1009.9 -
14/09:30am 16.7 - - - - W 32 48 17 26 1009.6 1009.6 -
14/09:23am 16.6 - - - - W 28 48 15 26 1009.4 1009.4 -
14/09:00am 15.8 - - - - WNW 24 37 13 20 1009.3 1009.3 -
14/08:34am 15.1 - - - - W 28 46 15 25 1008.9 1008.9 -
14/08:30am 15.7 - - - - W 24 41 13 22 1008.9 1008.9 -
14/08:00am 15.4 - - - - W 20 35 11 19 1008.7 1008.7 -
14/07:30am 14.4 - - - - WNW 17 24 9 13 1008.1 1008.1 -
14/07:00am 12.9 - - - - W 9 17 5 9 1008.1 1008.1 -
14/06:30am 13.4 - - - - NNW 20 30 11 16 1007.2 1007.2 -
14/06:00am 13.3 - - - - NW 17 22 9 12 1007.1 1007.1 -
14/05:30am 13.4 - - - - NNW 19 30 10 16 1007.0 1007.0 -
14/05:00am 13.9 - - - - NW 20 33 11 18 1006.6 1006.6 -
14/04:30am 13.8 - - - - NW 19 32 10 17 1006.4 1006.4 -
14/04:00am 13.9 - - - - NNW 19 28 10 15 1006.2 1006.2 -
14/03:30am 14.1 - - - - NW 19 26 10 14 1006.3 1006.3 -
14/03:00am 14.1 - - - - NW 17 28 9 15 1006.2 1006.2 -
14/02:30am 14.5 - - - - NNW 15 19 8 10 1006.2 1006.2 -
14/02:00am 15.0 - - - - WNW 17 26 9 14 1006.1 1006.1 -
14/01:30am 14.7 - - - - WNW 13 20 7 11 1006.1 1006.1 -
14/01:00am 14.4 - - - - WNW 19 26 10 14 1006.3 1006.3 -
14/12:30am 13.9 - - - - WNW 26 41 14 22 1006.4 1006.4 -
14/12:20am 13.9 - - - - W 28 46 15 25 1006.4 1006.4 -
14/12:00am 14.8 - - - - W 20 32 11 17 1006.4 1006.4 -
 
Date/Time
EST
Temp
°C
App
Temp
°C
Dew
Point
°C
Rel
Hum
%
Delta-T
°C
Wind Press
QNH
hPa
Press
MSL
hPa
Rain since
9am
mm
Dir  Spd
km/h
Gust
km/h
Spd
kts
Gust
kts
13/11:36pm 15.5 - - - - W 30 48 16 26 1006.3 1006.3 -
13/11:30pm 16.0 - - - - W 35 52 19 28 1006.2 1006.2 -
13/11:19pm 16.6 - - - - WNW 32 50 17 27 1005.7 1005.7 -
13/11:00pm 17.1 - - - - W 26 41 14 22 1005.8 1005.8 -
13/10:30pm 19.8 - - - - NW 22 35 12 19 1005.4 1005.4 -
13/10:00pm 19.6 - - - - NNW 22 32 12 17 1005.2 1005.2 -
13/09:30pm 19.2 - - - - NNW 26 39 14 21 1005.2 1005.2 -
13/09:00pm 19.2 - - - - NNW 33 46 18 25 1005.2 1005.2 -
13/08:48pm 18.9 - - - - NNW 33 54 18 29 1005.3 1005.3 -
13/08:30pm 18.9 - - - - NNW 35 44 19 24 1005.4 1005.4 -
13/08:00pm 18.4 - - - - NNW 52 72 28 39 1005.4 1005.4 -
13/07:47pm 19.0 - - - - NNW 44 70 24 38 1005.5 1005.5 -
13/07:30pm 18.8 - - - - NNW 41 57 22 31 1005.6 1005.6 -
13/07:16pm 18.8 - - - - NNW 41 59 22 32 1005.8 1005.8 -
13/07:00pm 18.6 - - - - N 44 57 24 31 1005.5 1005.5 -
13/06:40pm 18.7 - - - - NNW 43 61 23 33 1005.8 1005.8 -
13/06:30pm 18.6 - - - - NNW 44 59 24 32 1005.8 1005.8 -
13/06:09pm 18.9 - - - - NNW 32 50 17 27 1006.1 1006.1 -
13/06:00pm 18.9 - - - - NNW 32 44 17 24 1005.8 1005.8 -
13/05:34pm 19.5 - - - - NNW 33 56 18 30 1005.5 1005.5 -
13/05:30pm 19.7 - - - - NNW 32 44 17 24 1005.5 1005.5 -
13/05:00pm 19.9 - - - - NW 35 57 19 31 1005.9 1005.9 -
13/04:36pm 20.1 - - - - NNW 37 56 20 30 1005.6 1005.6 -
13/04:30pm 20.3 - - - - NNW 41 57 22 31 1005.5 1005.5 -
13/04:19pm 20.1 - - - - NNW 30 48 16 26 1005.7 1005.7 -
13/04:00pm 19.9 - - - - NNW 30 39 16 21 1006.0 1006.0 -
13/03:30pm 19.4 - - - - N 33 48 18 26 1005.8 1005.8 -
13/03:00pm 19.5 - - - - N 37 46 20 25 1006.0 1006.0 -
13/02:30pm 19.3 - - - - N 41 52 22 28 1006.1 1006.1 -
13/02:04pm 19.0 - - - - N 44 65 24 35 1006.2 1006.2 -
13/02:00pm 19.0 - - - - N 46 65 25 35 1006.3 1006.3 -
13/01:30pm 18.7 - - - - N 48 70 26 38 1006.8 1006.8 -
13/01:26pm 18.6 - - - - N 50 70 27 38 1006.8 1006.8 -
13/01:00pm 17.7 - - - - N 44 57 24 31 1007.8 1007.8 -
13/12:30pm 16.9 - - - - N 44 56 24 30 1009.0 1009.0 -
13/12:00pm 16.6 - - - - N 37 48 20 26 1009.5 1009.5 -
13/11:45am 16.5 - - - - N 41 59 22 32 1009.9 1009.9 -
13/11:30am 16.4 - - - - N 44 57 24 31 1010.2 1010.2 -
13/11:00am 16.1 - - - - N 44 54 24 29 1010.8 1010.8 -
13/10:30am 15.4 - - - - N 30 37 16 20 1012.0 1012.0 -
13/10:00am 15.5 - - - - N 28 39 15 21 1012.6 1012.6 -
13/09:30am 15.2 - - - - N 24 35 13 19 1013.2 1013.2 -
13/09:00am 14.6 - - - - N 24 30 13 16 1013.6 1013.6 -
13/08:30am 14.7 - - - - N 22 30 12 16 1014.0 1014.0 -
13/08:00am 14.4 - - - - N 28 33 15 18 1013.7 1013.7 -
13/07:30am 14.1 - - - - N 30 37 16 20 1013.7 1013.7 -
13/07:00am 13.7 - - - - N 24 32 13 17 1013.9 1013.9 -
13/06:30am 13.5 - - - - NNE 20 26 11 14 1014.2 1014.2 -
13/06:00am 13.3 - - - - N 24 30 13 16 1014.4 1014.4 -
13/05:30am 13.1 - - - - NNE 26 32 14 17 1014.6 1014.6 -
13/05:00am 13.1 - - - - NNE 24 28 13 15 1014.8 1014.8 -
13/04:30am 12.7 - - - - N 19 22 10 12 1015.2 1015.2 -
13/04:00am 12.4 - - - - N 15 19 8 10 1015.6 1015.6 -
13/03:30am 12.2 - - - - NNE 17 20 9 11 1016.1 1016.1 -
13/03:00am 11.9 - - - - N 11 13 6 7 1016.6 1016.6 -
13/02:30am 12.7 - - - - NNE 13 17 7 9 1016.9 1016.9 -
13/02:00am 12.8 - - - - NE 20 22 11 12 1017.4 1017.4 -
13/01:30am 12.7 - - - - NNE 22 26 12 14 1017.8 1017.8 -
13/01:00am 13.0 - - - - NNE 20 28 11 15 1018.1 1018.1 -
13/12:30am 13.2 - - - - NE 22 26 12 14 1018.3 1018.3 -
13/12:00am 13.1 - - - - NE 22 24 12 13 1018.7 1018.7 -
 
Date/Time
EST
Temp
°C
App
Temp
°C
Dew
Point
°C
Rel
Hum
%
Delta-T
°C
Wind Press
QNH
hPa
Press
MSL
hPa
Rain since
9am
mm
Dir  Spd
km/h
Gust
km/h
Spd
kts
Gust
kts
12/11:30pm 13.5 - - - - NE 24 28 13 15 1019.4 1019.4 -
12/11:00pm 13.8 - - - - NE 22 28 12 15 1019.8 1019.8 -
12/10:30pm 14.0 - - - - ENE 24 28 13 15 1020.0 1020.0 -
12/10:00pm 14.3 - - - - ENE 26 30 14 16 1020.4 1020.4 -
12/09:30pm 14.6 - - - - NE 24 30 13 16 1020.4 1020.4 -
12/09:00pm 14.9 - - - - ENE 19 22 10 12 1020.6 1020.6 -
12/08:30pm 14.6 - - - - E 17 20 9 11 1020.8 1020.8 -
12/08:00pm 14.5 - - - - E 15 19 8 10 1021.1 1021.1 -
12/07:30pm 14.6 - - - - ENE 15 17 8 9 1021.3 1021.3 -
12/07:00pm 14.8 - - - - E 11 13 6 7 1021.5 1021.5 -
12/06:30pm 14.8 - - - - ESE 7 11 4 6 1021.5 1021.5 -
12/06:00pm 14.9 - - - - SE 9 11 5 6 1021.4 1021.4 -
12/05:30pm 15.0 - - - - ESE 6 9 3 5 1021.4 1021.4 -
12/05:00pm 15.0 - - - - SE 7 11 4 6 1021.3 1021.3 -
12/04:30pm 15.1 - - - - ESE 13 17 7 9 1021.1 1021.1 -
12/04:00pm 15.0 - - - - SE 11 13 6 7 1021.5 1021.5 -
12/03:30pm 15.2 - - - - SSE 11 15 6 8 1021.7 1021.7 -
12/03:00pm 15.1 - - - - SE 13 19 7 10 1021.8 1021.8 -
12/02:30pm 15.2 - - - - SE 13 17 7 9 1022.1 1022.1 -
12/02:00pm 15.3 - - - - ESE 11 19 6 10 1022.4 1022.4 -
12/01:30pm 15.4 - - - - SE 7 13 4 7 1022.9 1022.9 -
12/01:00pm 15.6 - - - - SW 4 6 2 3 1023.2 1023.2 -
12/12:30pm 15.5 - - - - SSW 7 13 4 7 1023.7 1023.7 -
12/12:00pm 15.4 - - - - SSW 9 13 5 7 1024.0 1024.0 -
12/11:30am 15.4 - - - - SSW 11 19 6 10 1024.0 1024.0 -
12/11:00am 15.3 - - - - SSW 15 20 8 11 1024.1 1024.1 -
12/10:30am 15.2 - - - - SSW 15 20 8 11 1024.2 1024.2 -
12/10:00am 15.1 - - - - SSW 17 22 9 12 1024.1 1024.1 -
12/09:30am 14.9 - - - - SSW 17 24 9 13 1024.1 1024.1 -
12/09:00am 14.9 - - - - SSW 17 28 9 15 1024.2 1024.2 -
12/08:30am 14.1 - - - - SSW 9 15 5 8 1024.2 1024.2 -
12/08:00am 13.7 - - - - S 9 24 5 13 1024.3 1024.3 -
12/07:30am 12.4 - - - - WSW 4 6 2 3 1024.0 1024.0 -
12/07:00am 12.3 - - - - WSW 7 15 4 8 1024.0 1024.0 -
12/06:30am 12.7 - - - - S 13 19 7 10 1024.1 1024.1 -
12/06:00am 13.5 - - - - SW 11 13 6 7 1023.8 1023.8 -
12/05:30am 13.7 - - - - SW 17 24 9 13 1023.5 1023.5 -
12/05:00am 14.1 - - - - SSW 17 22 9 12 1023.3 1023.3 -
12/04:30am 13.7 - - - - SW 9 11 5 6 1022.9 1022.9 -
12/04:00am 14.4 - - - - S 17 24 9 13 1022.7 1022.7 -
12/03:30am 14.4 - - - - SSW 20 28 11 15 1022.9 1022.9 -
12/03:00am 14.3 - - - - SSW 20 28 11 15 1023.2 1023.2 -
12/02:30am 14.0 - - - - SSW 17 24 9 13 1023.3 1023.3 -
12/02:00am 13.5 - - - - SW 9 13 5 7 1023.4 1023.4 -
12/01:30am 13.5 - - - - SSW 20 32 11 17 1023.6 1023.6 -
12/01:00am 14.2 - - - - SSW 20 30 11 16 1023.8 1023.8 -
12/12:30am 14.6 - - - - SSW 15 30 8 16 1023.7 1023.7 -
12/12:00am 13.8 - - - - SSW 13 19 7 10 1023.8 1023.8 -
 
Date/Time
EST
Temp
°C
App
Temp
°C
Dew
Point
°C
Rel
Hum
%
Delta-T
°C
Wind Press
QNH
hPa
Press
MSL
hPa
Rain since
9am
mm
Dir  Spd
km/h
Gust
km/h
Spd
kts
Gust
kts
11/11:30pm 13.8 - - - - S 20 33 11 18 1024.0 1024.0 -
11/11:00pm 13.2 - - - - SW 15 26 8 14 1023.9 1023.9 -
11/10:30pm 13.5 - - - - SSW 13 17 7 9 1023.8 1023.8 -
11/10:00pm 14.2 - - - - S 20 28 11 15 1023.7 1023.7 -
11/09:30pm 14.0 - - - - S 19 24 10 13 1023.6 1023.6 -
11/09:00pm 13.9 - - - - SSW 30 43 16 23 1023.2 1023.2 -
11/08:54pm 13.9 - - - - SSW 28 39 15 21 1023.2 1023.2 -
11/08:30pm 12.6 - - - - WSW 9 13 5 7 1023.1 1023.1 -
11/08:00pm 12.8 - - - - SSW 30 44 16 24 1023.1 1023.1 -
11/07:30pm 13.8 - - - - S 24 35 13 19 1022.6 1022.6 -
11/07:00pm 13.9 - - - - S 24 32 13 17 1022.2 1022.2 -
11/06:30pm 14.2 - - - - SSW 24 33 13 18 1021.6 1021.6 -
11/06:00pm 14.4 - - - - S 26 33 14 18 1021.6 1021.6 -
11/05:30pm 14.5 - - - - SSW 24 33 13 18 1021.6 1021.6 -
11/05:00pm 14.3 - - - - SSW 26 39 14 21 1021.5 1021.5 -
11/04:30pm 14.5 - - - - SSW 28 43 15 23 1021.4 1021.4 -
11/04:00pm 14.6 - - - - SSW 35 46 19 25 1021.1 1021.1 -
11/03:30pm 14.1 - - - - SSW 32 44 17 24 1020.9 1020.9 -

Other formats

Comma delimited format used in spreadsheet applications
http://www.bom.gov.au/fwo/IDV60801/IDV60801.95826.axf

JavaScript Object Notation format (JSON) in row-major order
http://www.bom.gov.au/fwo/IDV60801/IDV60801.95826.json

Data quality

Most of these data are generated automatically and are frequently updated. Quality checks on data are not normally performed. It is possible for incorrect values to appear. Refer to information at About Latest Weather Observations and please check the disclaimer before using these data.